Schoharie, NY (12157)

12:33 AM EDT on August 05, 2015 (GMT -0400)
Schoharie Village | | Change Station
CLOSE
Current Station
Personal Weather Station
Location: Schoharie, NY
Elevation: 597 ft
Nearby Weather Stations

Elev 597 ft 42.67 °N, 74.30 °W | Updated 49 seconds ago

Partly Cloudy
Partly Cloudy
61.2 °F
Feels Like 61.2 °F
N
0.0
Wind Variable Wind from SSW
Gusts 0.0 mph

Today
High -- | Low -- °F
--% Chance of Precip.
Yesterday
High -- | Low -- °F
Precip. -- in
5:52 AM 8:12 PM
Waning Gibbous, 71% visible
Pressure 29.91 in
Visibility 10.0 miles
Clouds Few 14000 ft
Dew Point 61 °F
Humidity 98%
Rainfall 0.00 in
Snow Depth Not available.
UV 0.0 out of 12
Pollen 7.40 out of 12
Air Quality Not available.
Flu Activity Not available.
METAR KALB 050351Z 00000KT 10SM FEW140 19/13 A2991 RMK AO2 SLP126 T01940128

More Conditions Fewer Conditions

Pressure 29.91 in
Visibility 10.0 miles
Clouds Few 14000 ft
Dew Point 61 °F
Humidity 98%
Rainfall 0.00 in
Snow Depth Not available.
UV 0.0 out of 12
Pollen 7.40 out of 12
Air Quality Not available.
Flu Activity Not available.
METAR KALB 050351Z 00000KT 10SM FEW140 19/13 A2991 RMK AO2 SLP126 T01940128

More Conditions Fewer Conditions

10-Day Weather Forecast

×

Almanac

Astronomy

Aug. 05, 2015 Rise Set
Actual Time
Civil Twilight
Nautical Twilight
Astronomical Twilight
Moon
Length of Visible Light
Length of Day
Tomorrow will be .
, % of the Moon is Illuminated

Today's Extremes

State Highs State Lows

Community

WunderPhotos

Upload Photos

1,844,094 photos uploaded!

WunderBlogs® & News

Nearby

Air Quality

  Air Quality AQ Index Pollutant
Not available.

Snow Depth

Station Depth Elevation

Earthquake Activity

City Distance Mag. Time & Date
Minimum magnitude displayed is 2.5.

Coastal Water Temperatures

Place Temperature

Stations

Nearby Weather Stations

Station Location Temp. Windchill Dew Point Humidity Wind Precip. Elev Updated Type